sensor_id;sensor_type;location;lat;lon;timestamp;temperature;humidity
71082;SHT31;58740;50.672;18.690;2022-09-14T00:01:35;16.42;74.09
71082;SHT31;58740;50.672;18.690;2022-09-14T00:04:09;16.42;74.09
71082;SHT31;58740;50.672;18.690;2022-09-14T00:06:40;16.40;74.11
71082;SHT31;58740;50.672;18.690;2022-09-14T00:09:19;16.38;74.15
71082;SHT31;58740;50.672;18.690;2022-09-14T00:11:50;16.35;74.20
71082;SHT31;58740;50.672;18.690;2022-09-14T00:14:19;16.31;74.29
71082;SHT31;58740;50.672;18.690;2022-09-14T00:16:46;16.25;74.36
71082;SHT31;58740;50.672;18.690;2022-09-14T00:19:18;16.19;74.43
71082;SHT31;58740;50.672;18.690;2022-09-14T00:21:53;16.18;74.53
71082;SHT31;58740;50.672;18.690;2022-09-14T00:24:24;16.15;74.61
71082;SHT31;58740;50.672;18.690;2022-09-14T00:26:56;16.14;74.71
71082;SHT31;58740;50.672;18.690;2022-09-14T00:29:23;16.13;74.74
71082;SHT31;58740;50.672;18.690;2022-09-14T00:31:51;16.13;74.78
71082;SHT31;58740;50.672;18.690;2022-09-14T00:34:19;16.12;74.74
71082;SHT31;58740;50.672;18.690;2022-09-14T00:36:48;16.08;74.74
71082;SHT31;58740;50.672;18.690;2022-09-14T00:39:18;16.06;74.78
71082;SHT31;58740;50.672;18.690;2022-09-14T00:41:50;16.02;74.76
71082;SHT31;58740;50.672;18.690;2022-09-14T00:46:47;15.96;74.91
71082;SHT31;58740;50.672;18.690;2022-09-14T00:52:08;15.86;74.95
71082;SHT31;58740;50.672;18.690;2022-09-14T00:54:47;15.83;75.11
71082;SHT31;58740;50.672;18.690;2022-09-14T00:57:20;15.81;75.10
71082;SHT31;58740;50.672;18.690;2022-09-14T00:59:50;15.77;75.21
71082;SHT31;58740;50.672;18.690;2022-09-14T01:02:20;15.74;75.27
71082;SHT31;58740;50.672;18.690;2022-09-14T01:04:50;15.71;75.35
71082;SHT31;58740;50.672;18.690;2022-09-14T01:07:34;15.67;75.43
71082;SHT31;58740;50.672;18.690;2022-09-14T01:18:31;15.65;75.66
71082;SHT31;58740;50.672;18.690;2022-09-14T01:21:13;15.61;75.64
71082;SHT31;58740;50.672;18.690;2022-09-14T01:23:55;15.56;75.78
71082;SHT31;58740;50.672;18.690;2022-09-14T01:32:11;15.58;75.90
71082;SHT31;58740;50.672;18.690;2022-09-14T01:34:52;15.56;75.95
71082;SHT31;58740;50.672;18.690;2022-09-14T01:37:42;15.57;75.91
71082;SHT31;58740;50.672;18.690;2022-09-14T01:43:03;15.51;75.97
71082;SHT31;58740;50.672;18.690;2022-09-14T01:45:38;15.51;75.98
71082;SHT31;58740;50.672;18.690;2022-09-14T01:48:13;15.51;75.96
71082;SHT31;58740;50.672;18.690;2022-09-14T01:50:49;15.47;75.96
71082;SHT31;58740;50.672;18.690;2022-09-14T01:53:30;15.43;75.91
71082;SHT31;58740;50.672;18.690;2022-09-14T02:01:58;15.33;76.00
71082;SHT31;58740;50.672;18.690;2022-09-14T02:04:40;15.32;76.01
71082;SHT31;58740;50.672;18.690;2022-09-14T02:07:20;15.30;75.93
71082;SHT31;58740;50.672;18.690;2022-09-14T02:09:48;15.27;75.90
71082;SHT31;58740;50.672;18.690;2022-09-14T02:12:18;15.22;75.90
71082;SHT31;58740;50.672;18.690;2022-09-14T02:14:49;15.19;75.95
71082;SHT31;58740;50.672;18.690;2022-09-14T02:17:20;15.15;76.00
71082;SHT31;58740;50.672;18.690;2022-09-14T02:19:51;15.15;75.98
71082;SHT31;58740;50.672;18.690;2022-09-14T02:22:24;15.13;75.98
71082;SHT31;58740;50.672;18.690;2022-09-14T02:24:54;15.10;75.96
71082;SHT31;58740;50.672;18.690;2022-09-14T02:27:22;15.07;76.04
71082;SHT31;58740;50.672;18.690;2022-09-14T02:29:51;15.03;76.07
71082;SHT31;58740;50.672;18.690;2022-09-14T02:58:02;14.89;76.79
71082;SHT31;58740;50.672;18.690;2022-09-14T03:00:36;14.86;76.95
71082;SHT31;58740;50.672;18.690;2022-09-14T03:03:08;14.85;76.97
71082;SHT31;58740;50.672;18.690;2022-09-14T03:05:40;14.84;76.94
71082;SHT31;58740;50.672;18.690;2022-09-14T03:08:08;14.84;76.91
71082;SHT31;58740;50.672;18.690;2022-09-14T03:10:37;14.84;76.94
71082;SHT31;58740;50.672;18.690;2022-09-14T03:13:09;14.84;76.97
71082;SHT31;58740;50.672;18.690;2022-09-14T03:15:37;14.84;77.00
71082;SHT31;58740;50.672;18.690;2022-09-14T03:18:05;14.83;77.00
71082;SHT31;58740;50.672;18.690;2022-09-14T03:20:40;14.83;77.08
71082;SHT31;58740;50.672;18.690;2022-09-14T03:23:09;14.82;77.08
71082;SHT31;58740;50.672;18.690;2022-09-14T03:25:41;14.81;77.15
71082;SHT31;58740;50.672;18.690;2022-09-14T03:28:11;14.81;77.16
71082;SHT31;58740;50.672;18.690;2022-09-14T03:30:39;14.82;77.17
71082;SHT31;58740;50.672;18.690;2022-09-14T03:33:07;14.84;77.27
71082;SHT31;58740;50.672;18.690;2022-09-14T03:35:35;14.89;77.29
71082;SHT31;58740;50.672;18.690;2022-09-14T03:38:02;14.90;77.20
71082;SHT31;58740;50.672;18.690;2022-09-14T03:40:30;14.90;77.32
71082;SHT31;58740;50.672;18.690;2022-09-14T03:42:58;14.87;77.35
71082;SHT31;58740;50.672;18.690;2022-09-14T03:45:25;14.90;77.38
71082;SHT31;58740;50.672;18.690;2022-09-14T03:47:53;14.91;77.28
71082;SHT31;58740;50.672;18.690;2022-09-14T03:50:21;14.90;77.26
71082;SHT31;58740;50.672;18.690;2022-09-14T03:52:48;14.87;77.25
71082;SHT31;58740;50.672;18.690;2022-09-14T03:55:16;14.86;77.30
71082;SHT31;58740;50.672;18.690;2022-09-14T03:57:45;14.85;77.29
71082;SHT31;58740;50.672;18.690;2022-09-14T04:00:13;14.83;77.30
71082;SHT31;58740;50.672;18.690;2022-09-14T04:02:40;14.79;77.29
71082;SHT31;58740;50.672;18.690;2022-09-14T04:05:09;14.77;77.31
71082;SHT31;58740;50.672;18.690;2022-09-14T04:07:36;14.75;77.29
71082;SHT31;58740;50.672;18.690;2022-09-14T04:10:04;14.74;77.30
71082;SHT31;58740;50.672;18.690;2022-09-14T04:12:34;14.73;77.31
71082;SHT31;58740;50.672;18.690;2022-09-14T04:15:04;14.73;77.38
71082;SHT31;58740;50.672;18.690;2022-09-14T04:17:33;14.71;77.44
71082;SHT31;58740;50.672;18.690;2022-09-14T04:20:01;14.68;77.50
71082;SHT31;58740;50.672;18.690;2022-09-14T04:22:30;14.66;77.55
71082;SHT31;58740;50.672;18.690;2022-09-14T04:24:59;14.66;77.52
71082;SHT31;58740;50.672;18.690;2022-09-14T04:27:28;14.66;77.61
71082;SHT31;58740;50.672;18.690;2022-09-14T04:29:56;14.68;77.69
71082;SHT31;58740;50.672;18.690;2022-09-14T04:32:24;14.68;77.72
71082;SHT31;58740;50.672;18.690;2022-09-14T04:34:55;14.65;77.78
71082;SHT31;58740;50.672;18.690;2022-09-14T04:37:23;14.64;77.78
71082;SHT31;58740;50.672;18.690;2022-09-14T04:39:51;14.62;77.74
71082;SHT31;58740;50.672;18.690;2022-09-14T04:42:19;14.61;77.86
71082;SHT31;58740;50.672;18.690;2022-09-14T04:44:46;14.64;77.87
71082;SHT31;58740;50.672;18.690;2022-09-14T04:47:14;14.66;77.90
71082;SHT31;58740;50.672;18.690;2022-09-14T04:49:41;14.66;77.89
71082;SHT31;58740;50.672;18.690;2022-09-14T04:52:09;14.67;77.94
71082;SHT31;58740;50.672;18.690;2022-09-14T04:54:37;14.68;78.03
71082;SHT31;58740;50.672;18.690;2022-09-14T04:57:04;14.70;78.13
71082;SHT31;58740;50.672;18.690;2022-09-14T04:59:32;14.72;78.14
71082;SHT31;58740;50.672;18.690;2022-09-14T05:02:00;14.75;78.20
71082;SHT31;58740;50.672;18.690;2022-09-14T05:04:28;14.79;78.20
71082;SHT31;58740;50.672;18.690;2022-09-14T05:06:55;14.79;78.26
71082;SHT31;58740;50.672;18.690;2022-09-14T05:09:23;14.82;78.25
71082;SHT31;58740;50.672;18.690;2022-09-14T05:11:51;14.84;78.16
71082;SHT31;58740;50.672;18.690;2022-09-14T05:14:19;14.89;78.17
71082;SHT31;58740;50.672;18.690;2022-09-14T05:16:47;14.93;78.12
71082;SHT31;58740;50.672;18.690;2022-09-14T05:19:15;14.98;78.26
71082;SHT31;58740;50.672;18.690;2022-09-14T05:21:45;15.01;78.35
71082;SHT31;58740;50.672;18.690;2022-09-14T05:24:14;15.04;78.43
71082;SHT31;58740;50.672;18.690;2022-09-14T05:26:44;15.06;78.43
71082;SHT31;58740;50.672;18.690;2022-09-14T05:29:13;15.10;78.47
71082;SHT31;58740;50.672;18.690;2022-09-14T05:31:44;15.13;78.51
71082;SHT31;58740;50.672;18.690;2022-09-14T05:34:14;15.20;78.50
71082;SHT31;58740;50.672;18.690;2022-09-14T05:36:42;15.26;78.37
71082;SHT31;58740;50.672;18.690;2022-09-14T05:39:10;15.33;78.27
71082;SHT31;58740;50.672;18.690;2022-09-14T05:41:37;15.42;78.04
71082;SHT31;58740;50.672;18.690;2022-09-14T05:44:05;15.49;78.05
71082;SHT31;58740;50.672;18.690;2022-09-14T05:46:33;15.55;77.98
71082;SHT31;58740;50.672;18.690;2022-09-14T05:49:01;15.60;77.82
71082;SHT31;58740;50.672;18.690;2022-09-14T05:51:29;15.69;77.75
71082;SHT31;58740;50.672;18.690;2022-09-14T05:53:57;15.77;77.78
71082;SHT31;58740;50.672;18.690;2022-09-14T05:56:26;15.83;77.60
71082;SHT31;58740;50.672;18.690;2022-09-14T05:58:58;15.87;77.41
71082;SHT31;58740;50.672;18.690;2022-09-14T06:01:28;15.89;77.31
71082;SHT31;58740;50.672;18.690;2022-09-14T06:03:59;15.90;77.45
71082;SHT31;58740;50.672;18.690;2022-09-14T06:06:29;15.91;77.52
71082;SHT31;58740;50.672;18.690;2022-09-14T06:08:59;15.97;77.49
71082;SHT31;58740;50.672;18.690;2022-09-14T06:11:28;16.01;77.27
71082;SHT31;58740;50.672;18.690;2022-09-14T06:13:59;16.08;77.24
71082;SHT31;58740;50.672;18.690;2022-09-14T06:16:27;16.13;77.21
71082;SHT31;58740;50.672;18.690;2022-09-14T06:18:56;16.15;77.07
71082;SHT31;58740;50.672;18.690;2022-09-14T06:21:32;16.19;77.07
71082;SHT31;58740;50.672;18.690;2022-09-14T06:24:01;16.20;77.13
71082;SHT31;58740;50.672;18.690;2022-09-14T06:26:30;16.22;77.12
71082;SHT31;58740;50.672;18.690;2022-09-14T06:28:59;16.27;77.12
71082;SHT31;58740;50.672;18.690;2022-09-14T06:31:26;16.32;77.14
71082;SHT31;58740;50.672;18.690;2022-09-14T06:33:54;16.36;77.13
71082;SHT31;58740;50.672;18.690;2022-09-14T06:36:23;16.41;77.06
71082;SHT31;58740;50.672;18.690;2022-09-14T06:38:53;16.45;76.97
71082;SHT31;58740;50.672;18.690;2022-09-14T06:41:23;16.47;77.08
71082;SHT31;58740;50.672;18.690;2022-09-14T06:43:57;16.49;77.06
71082;SHT31;58740;50.672;18.690;2022-09-14T06:46:29;16.51;77.06
71082;SHT31;58740;50.672;18.690;2022-09-14T06:49:04;16.54;77.00
71082;SHT31;58740;50.672;18.690;2022-09-14T06:51:38;16.58;76.96
71082;SHT31;58740;50.672;18.690;2022-09-14T06:54:09;16.60;76.93
71082;SHT31;58740;50.672;18.690;2022-09-14T06:56:40;16.63;77.09
71082;SHT31;58740;50.672;18.690;2022-09-14T06:59:10;16.67;76.98
71082;SHT31;58740;50.672;18.690;2022-09-14T07:01:41;16.73;76.89
71082;SHT31;58740;50.672;18.690;2022-09-14T07:04:12;16.78;76.95
71082;SHT31;58740;50.672;18.690;2022-09-14T07:06:41;16.84;76.95
71082;SHT31;58740;50.672;18.690;2022-09-14T07:09:16;16.89;76.88
71082;SHT31;58740;50.672;18.690;2022-09-14T07:11:46;16.92;76.88
71082;SHT31;58740;50.672;18.690;2022-09-14T07:14:13;16.94;76.99
71082;SHT31;58740;50.672;18.690;2022-09-14T07:16:41;17.00;77.00
71082;SHT31;58740;50.672;18.690;2022-09-14T07:19:11;17.04;76.89
71082;SHT31;58740;50.672;18.690;2022-09-14T07:21:42;17.10;76.77
71082;SHT31;58740;50.672;18.690;2022-09-14T07:24:11;17.15;76.68
71082;SHT31;58740;50.672;18.690;2022-09-14T07:26:41;17.20;76.91
71082;SHT31;58740;50.672;18.690;2022-09-14T07:29:11;17.25;76.84
71082;SHT31;58740;50.672;18.690;2022-09-14T07:31:49;17.28;76.96
71082;SHT31;58740;50.672;18.690;2022-09-14T07:34:20;17.32;76.80
71082;SHT31;58740;50.672;18.690;2022-09-14T07:36:48;17.35;76.84
71082;SHT31;58740;50.672;18.690;2022-09-14T07:39:16;17.39;76.73
71082;SHT31;58740;50.672;18.690;2022-09-14T07:41:44;17.44;76.69
71082;SHT31;58740;50.672;18.690;2022-09-14T07:44:13;17.51;76.64
71082;SHT31;58740;50.672;18.690;2022-09-14T07:46:44;17.57;76.81
71082;SHT31;58740;50.672;18.690;2022-09-14T07:49:13;17.63;76.73
71082;SHT31;58740;50.672;18.690;2022-09-14T07:51:43;17.66;76.54
71082;SHT31;58740;50.672;18.690;2022-09-14T07:54:12;17.71;76.37
71082;SHT31;58740;50.672;18.690;2022-09-14T07:56:42;17.78;76.55
71082;SHT31;58740;50.672;18.690;2022-09-14T07:59:11;17.84;76.63
71082;SHT31;58740;50.672;18.690;2022-09-14T08:02:01;17.91;76.51
71082;SHT31;58740;50.672;18.690;2022-09-14T08:04:29;17.98;76.23
71082;SHT31;58740;50.672;18.690;2022-09-14T08:06:56;18.02;75.99
71082;SHT31;58740;50.672;18.690;2022-09-14T08:09:25;18.07;75.85
71082;SHT31;58740;50.672;18.690;2022-09-14T08:11:53;18.15;76.02
71082;SHT31;58740;50.672;18.690;2022-09-14T08:14:20;18.27;76.07
71082;SHT31;58740;50.672;18.690;2022-09-14T08:16:48;18.35;75.65
71082;SHT31;58740;50.672;18.690;2022-09-14T08:19:16;18.42;75.34
71082;SHT31;58740;50.672;18.690;2022-09-14T08:21:47;18.48;75.53
71082;SHT31;58740;50.672;18.690;2022-09-14T08:24:16;18.54;75.11
71082;SHT31;58740;50.672;18.690;2022-09-14T08:26:47;18.59;74.94
71082;SHT31;58740;50.672;18.690;2022-09-14T08:29:16;18.63;75.01
71082;SHT31;58740;50.672;18.690;2022-09-14T08:31:46;18.67;75.21
71082;SHT31;58740;50.672;18.690;2022-09-14T08:34:15;18.66;74.85
71082;SHT31;58740;50.672;18.690;2022-09-14T08:36:44;18.69;74.92
71082;SHT31;58740;50.672;18.690;2022-09-14T08:39:14;18.68;74.68
71082;SHT31;58740;50.672;18.690;2022-09-14T08:46:58;18.74;74.28
71082;SHT31;58740;50.672;18.690;2022-09-14T08:50:15;18.78;74.12
71082;SHT31;58740;50.672;18.690;2022-09-14T08:52:47;18.82;73.94
71082;SHT31;58740;50.672;18.690;2022-09-14T08:55:37;18.82;74.12
71082;SHT31;58740;50.672;18.690;2022-09-14T09:10:17;19.03;73.37
71082;SHT31;58740;50.672;18.690;2022-09-14T09:12:47;19.09;73.44
71082;SHT31;58740;50.672;18.690;2022-09-14T09:15:24;19.14;73.76
71082;SHT31;58740;50.672;18.690;2022-09-14T09:18:05;19.21;73.28
71082;SHT31;58740;50.672;18.690;2022-09-14T09:20:41;19.25;73.53
71082;SHT31;58740;50.672;18.690;2022-09-14T09:23:21;19.31;73.69
71082;SHT31;58740;50.672;18.690;2022-09-14T09:28:27;19.42;73.28
71082;SHT31;58740;50.672;18.690;2022-09-14T09:31:02;19.42;72.98
71082;SHT31;58740;50.672;18.690;2022-09-14T09:33:41;19.43;72.88
71082;SHT31;58740;50.672;18.690;2022-09-14T09:36:12;19.42;72.85
71082;SHT31;58740;50.672;18.690;2022-09-14T09:38:41;19.41;73.05
71082;SHT31;58740;50.672;18.690;2022-09-14T09:41:19;19.45;72.99
71082;SHT31;58740;50.672;18.690;2022-09-14T09:43:56;19.47;72.82
71082;SHT31;58740;50.672;18.690;2022-09-14T09:46:33;19.50;72.89
71082;SHT31;58740;50.672;18.690;2022-09-14T09:49:15;19.54;72.79
71082;SHT31;58740;50.672;18.690;2022-09-14T09:51:56;19.60;72.68
71082;SHT31;58740;50.672;18.690;2022-09-14T09:54:37;19.64;72.75
71082;SHT31;58740;50.672;18.690;2022-09-14T09:57:20;19.69;72.95
71082;SHT31;58740;50.672;18.690;2022-09-14T10:00:09;19.74;72.87
71082;SHT31;58740;50.672;18.690;2022-09-14T10:02:51;19.77;72.69
71082;SHT31;58740;50.672;18.690;2022-09-14T10:05:25;19.80;72.81
71082;SHT31;58740;50.672;18.690;2022-09-14T10:08:01;19.84;72.86
71082;SHT31;58740;50.672;18.690;2022-09-14T10:13:27;19.84;72.08
71082;SHT31;58740;50.672;18.690;2022-09-14T10:18:44;19.83;72.54
71082;SHT31;58740;50.672;18.690;2022-09-14T10:21:16;19.84;72.41
71082;SHT31;58740;50.672;18.690;2022-09-14T10:24:00;19.86;72.47
71082;SHT31;58740;50.672;18.690;2022-09-14T10:26:43;19.87;72.15
71082;SHT31;58740;50.672;18.690;2022-09-14T10:31:58;19.83;71.71
71082;SHT31;58740;50.672;18.690;2022-09-14T10:34:33;19.82;71.91
71082;SHT31;58740;50.672;18.690;2022-09-14T10:40:18;19.84;72.22
71082;SHT31;58740;50.672;18.690;2022-09-14T10:43:01;19.84;72.21
71082;SHT31;58740;50.672;18.690;2022-09-14T10:45:39;19.90;72.61
71082;SHT31;58740;50.672;18.690;2022-09-14T10:51:23;19.96;72.33
71082;SHT31;58740;50.672;18.690;2022-09-14T11:01:01;19.93;71.89
71082;SHT31;58740;50.672;18.690;2022-09-14T11:09:39;19.90;71.79
71082;SHT31;58740;50.672;18.690;2022-09-14T11:13:02;19.87;71.70
71082;SHT31;58740;50.672;18.690;2022-09-14T11:15:53;19.85;71.88
71082;SHT31;58740;50.672;18.690;2022-09-14T11:18:54;19.84;72.09
71082;SHT31;58740;50.672;18.690;2022-09-14T11:24:22;19.90;71.85
71082;SHT31;58740;50.672;18.690;2022-09-14T11:27:01;19.90;71.73
71082;SHT31;58740;50.672;18.690;2022-09-14T11:29:43;19.90;71.70
71082;SHT31;58740;50.672;18.690;2022-09-14T11:40:32;19.85;72.02
71082;SHT31;58740;50.672;18.690;2022-09-14T11:46:07;19.84;72.39
71082;SHT31;58740;50.672;18.690;2022-09-14T11:51:33;19.77;72.31
71082;SHT31;58740;50.672;18.690;2022-09-14T11:54:20;19.76;72.34
71082;SHT31;58740;50.672;18.690;2022-09-14T11:57:00;19.76;72.36
71082;SHT31;58740;50.672;18.690;2022-09-14T11:59:51;19.75;72.30
71082;SHT31;58740;50.672;18.690;2022-09-14T12:15:33;19.86;72.65
71082;SHT31;58740;50.672;18.690;2022-09-14T12:31:30;19.75;72.58
71082;SHT31;58740;50.672;18.690;2022-09-14T12:34:29;19.73;72.79
71082;SHT31;58740;50.672;18.690;2022-09-14T12:37:04;19.70;72.82
71082;SHT31;58740;50.672;18.690;2022-09-14T12:43:36;19.66;73.17
71082;SHT31;58740;50.672;18.690;2022-09-14T13:05:11;19.47;72.28
71082;SHT31;58740;50.672;18.690;2022-09-14T13:07:46;19.46;72.37
71082;SHT31;58740;50.672;18.690;2022-09-14T13:10:19;19.42;72.42
71082;SHT31;58740;50.672;18.690;2022-09-14T13:12:55;19.36;72.75
71082;SHT31;58740;50.672;18.690;2022-09-14T13:15:36;19.34;72.96
71082;SHT31;58740;50.672;18.690;2022-09-14T13:20:50;19.33;73.34
71082;SHT31;58740;50.672;18.690;2022-09-14T13:23:23;19.31;73.42
71082;SHT31;58740;50.672;18.690;2022-09-14T13:26:18;19.32;73.59
71082;SHT31;58740;50.672;18.690;2022-09-14T13:28:51;19.33;73.84
71082;SHT31;58740;50.672;18.690;2022-09-14T13:31:43;19.35;73.88
71082;SHT31;58740;50.672;18.690;2022-09-14T13:34:19;19.36;73.89
71082;SHT31;58740;50.672;18.690;2022-09-14T13:36:53;19.37;73.80
71082;SHT31;58740;50.672;18.690;2022-09-14T13:39:26;19.35;73.87
71082;SHT31;58740;50.672;18.690;2022-09-14T13:41:59;19.34;74.02
71082;SHT31;58740;50.672;18.690;2022-09-14T13:44:30;19.33;74.13
71082;SHT31;58740;50.672;18.690;2022-09-14T13:47:15;19.34;74.27
71082;SHT31;58740;50.672;18.690;2022-09-14T13:49:48;19.36;74.30
71082;SHT31;58740;50.672;18.690;2022-09-14T14:03:30;19.27;74.82
71082;SHT31;58740;50.672;18.690;2022-09-14T14:08:54;19.28;75.02
71082;SHT31;58740;50.672;18.690;2022-09-14T14:11:28;19.28;75.17
71082;SHT31;58740;50.672;18.690;2022-09-14T14:14:45;19.26;75.23
71082;SHT31;58740;50.672;18.690;2022-09-14T14:19:57;19.22;75.25
71082;SHT31;58740;50.672;18.690;2022-09-14T14:22:54;19.26;75.26
71082;SHT31;58740;50.672;18.690;2022-09-14T14:25:28;19.26;75.23
71082;SHT31;58740;50.672;18.690;2022-09-14T14:28:15;19.27;75.36
71082;SHT31;58740;50.672;18.690;2022-09-14T14:30:52;19.27;75.31
71082;SHT31;58740;50.672;18.690;2022-09-14T14:33:23;19.28;75.42
71082;SHT31;58740;50.672;18.690;2022-09-14T14:35:52;19.30;75.48
71082;SHT31;58740;50.672;18.690;2022-09-14T14:38:23;19.32;75.43
71082;SHT31;58740;50.672;18.690;2022-09-14T14:40:52;19.34;75.35
71082;SHT31;58740;50.672;18.690;2022-09-14T14:43:23;19.36;75.35
71082;SHT31;58740;50.672;18.690;2022-09-14T14:45:54;19.36;75.34
71082;SHT31;58740;50.672;18.690;2022-09-14T14:48:26;19.33;75.36
71082;SHT31;58740;50.672;18.690;2022-09-14T14:50:55;19.29;75.33
71082;SHT31;58740;50.672;18.690;2022-09-14T14:53:23;19.27;75.44
71082;SHT31;58740;50.672;18.690;2022-09-14T14:55:52;19.27;75.61
71082;SHT31;58740;50.672;18.690;2022-09-14T14:58:20;19.25;75.56
71082;SHT31;58740;50.672;18.690;2022-09-14T15:00:49;19.22;75.48
71082;SHT31;58740;50.672;18.690;2022-09-14T15:03:18;19.17;75.54
71082;SHT31;58740;50.672;18.690;2022-09-14T15:05:46;19.17;75.66
71082;SHT31;58740;50.672;18.690;2022-09-14T15:08:16;19.15;75.66
71082;SHT31;58740;50.672;18.690;2022-09-14T15:10:46;19.14;75.67
71082;SHT31;58740;50.672;18.690;2022-09-14T15:13:15;19.15;75.67
71082;SHT31;58740;50.672;18.690;2022-09-14T15:15:43;19.17;75.84
71082;SHT31;58740;50.672;18.690;2022-09-14T15:18:11;19.18;75.97
71082;SHT31;58740;50.672;18.690;2022-09-14T15:20:38;19.12;76.07
71082;SHT31;58740;50.672;18.690;2022-09-14T15:23:07;19.10;76.16
71082;SHT31;58740;50.672;18.690;2022-09-14T15:25:38;19.07;76.14
71082;SHT31;58740;50.672;18.690;2022-09-14T15:28:06;19.03;76.28
71082;SHT31;58740;50.672;18.690;2022-09-14T15:30:34;19.02;76.36
71082;SHT31;58740;50.672;18.690;2022-09-14T15:33:01;19.01;76.45
71082;SHT31;58740;50.672;18.690;2022-09-14T15:35:29;19.01;76.52
71082;SHT31;58740;50.672;18.690;2022-09-14T15:37:56;18.98;76.54
71082;SHT31;58740;50.672;18.690;2022-09-14T15:40:24;18.95;76.65
71082;SHT31;58740;50.672;18.690;2022-09-14T15:42:52;18.87;76.81
71082;SHT31;58740;50.672;18.690;2022-09-14T15:45:20;18.79;77.06
71082;SHT31;58740;50.672;18.690;2022-09-14T15:47:47;18.73;77.26
71082;SHT31;58740;50.672;18.690;2022-09-14T15:50:15;18.69;77.36
71082;SHT31;58740;50.672;18.690;2022-09-14T15:52:43;18.69;77.36
71082;SHT31;58740;50.672;18.690;2022-09-14T15:55:11;18.71;77.34
71082;SHT31;58740;50.672;18.690;2022-09-14T15:57:39;18.73;77.26
71082;SHT31;58740;50.672;18.690;2022-09-14T16:00:07;18.74;77.29
71082;SHT31;58740;50.672;18.690;2022-09-14T16:02:37;18.74;77.20
71082;SHT31;58740;50.672;18.690;2022-09-14T16:05:05;18.78;77.17
71082;SHT31;58740;50.672;18.690;2022-09-14T16:07:33;18.79;77.18
71082;SHT31;58740;50.672;18.690;2022-09-14T16:10:01;18.79;77.11
71082;SHT31;58740;50.672;18.690;2022-09-14T16:12:28;18.79;77.09
71082;SHT31;58740;50.672;18.690;2022-09-14T16:14:56;18.77;77.19
71082;SHT31;58740;50.672;18.690;2022-09-14T16:17:24;18.75;77.27
71082;SHT31;58740;50.672;18.690;2022-09-14T16:19:52;18.72;77.30
71082;SHT31;58740;50.672;18.690;2022-09-14T16:22:19;18.72;77.31
71082;SHT31;58740;50.672;18.690;2022-09-14T16:24:47;18.70;77.39
71082;SHT31;58740;50.672;18.690;2022-09-14T16:27:15;18.68;77.45
71082;SHT31;58740;50.672;18.690;2022-09-14T16:29:43;18.67;77.49
71082;SHT31;58740;50.672;18.690;2022-09-14T16:32:11;18.65;77.48
71082;SHT31;58740;50.672;18.690;2022-09-14T16:34:39;18.66;77.48
71082;SHT31;58740;50.672;18.690;2022-09-14T16:37:06;18.65;77.47
71082;SHT31;58740;50.672;18.690;2022-09-14T16:39:34;18.67;77.48
71082;SHT31;58740;50.672;18.690;2022-09-14T16:42:02;18.68;77.44
71082;SHT31;58740;50.672;18.690;2022-09-14T16:44:30;18.69;77.42
71082;SHT31;58740;50.672;18.690;2022-09-14T16:46:58;18.68;77.44
71082;SHT31;58740;50.672;18.690;2022-09-14T16:49:26;18.65;77.49
71082;SHT31;58740;50.672;18.690;2022-09-14T16:51:55;18.65;77.51
71082;SHT31;58740;50.672;18.690;2022-09-14T16:54:27;18.65;77.51
71082;SHT31;58740;50.672;18.690;2022-09-14T16:56:56;18.64;77.53
71082;SHT31;58740;50.672;18.690;2022-09-14T16:59:25;18.61;77.64
71082;SHT31;58740;50.672;18.690;2022-09-14T17:01:54;18.59;77.60
71082;SHT31;58740;50.672;18.690;2022-09-14T17:04:22;18.58;77.64
71082;SHT31;58740;50.672;18.690;2022-09-14T17:06:51;18.56;77.71
71082;SHT31;58740;50.672;18.690;2022-09-14T17:09:21;18.54;77.84
71082;SHT31;58740;50.672;18.690;2022-09-14T17:11:52;18.53;77.81
71082;SHT31;58740;50.672;18.690;2022-09-14T17:14:23;18.55;77.82
71082;SHT31;58740;50.672;18.690;2022-09-14T17:16:54;18.56;77.86
71082;SHT31;58740;50.672;18.690;2022-09-14T17:19:25;18.55;77.92
71082;SHT31;58740;50.672;18.690;2022-09-14T17:21:54;18.52;78.18
71082;SHT31;58740;50.672;18.690;2022-09-14T17:24:22;18.44;78.24
71082;SHT31;58740;50.672;18.690;2022-09-14T17:26:50;18.44;78.22
71082;SHT31;58740;50.672;18.690;2022-09-14T17:29:17;18.46;78.31
71082;SHT31;58740;50.672;18.690;2022-09-14T17:31:45;18.43;78.33
71082;SHT31;58740;50.672;18.690;2022-09-14T17:34:13;18.42;78.36
71082;SHT31;58740;50.672;18.690;2022-09-14T17:36:44;18.40;78.40
71082;SHT31;58740;50.672;18.690;2022-09-14T17:39:12;18.37;78.52
71082;SHT31;58740;50.672;18.690;2022-09-14T17:41:42;18.34;78.61
71082;SHT31;58740;50.672;18.690;2022-09-14T17:44:12;18.31;78.62
71082;SHT31;58740;50.672;18.690;2022-09-14T17:46:40;18.31;78.60
71082;SHT31;58740;50.672;18.690;2022-09-14T17:49:20;18.33;78.69
71082;SHT31;58740;50.672;18.690;2022-09-14T17:51:49;18.33;78.71
71082;SHT31;58740;50.672;18.690;2022-09-14T17:54:18;18.32;78.69
71082;SHT31;58740;50.672;18.690;2022-09-14T17:56:48;18.34;78.69
71082;SHT31;58740;50.672;18.690;2022-09-14T17:59:16;18.35;78.61
71082;SHT31;58740;50.672;18.690;2022-09-14T18:01:47;18.38;78.60
71082;SHT31;58740;50.672;18.690;2022-09-14T18:04:16;18.39;78.59
71082;SHT31;58740;50.672;18.690;2022-09-14T18:06:45;18.38;78.59
71082;SHT31;58740;50.672;18.690;2022-09-14T18:09:20;18.36;78.61
71082;SHT31;58740;50.672;18.690;2022-09-14T18:11:52;18.34;78.77
71082;SHT31;58740;50.672;18.690;2022-09-14T18:14:23;18.32;78.72
71082;SHT31;58740;50.672;18.690;2022-09-14T18:16:52;18.34;78.71
71082;SHT31;58740;50.672;18.690;2022-09-14T18:19:20;18.37;78.72
71082;SHT31;58740;50.672;18.690;2022-09-14T18:21:48;18.39;78.69
71082;SHT31;58740;50.672;18.690;2022-09-14T18:24:19;18.39;78.67
71082;SHT31;58740;50.672;18.690;2022-09-14T18:26:47;18.39;78.70
71082;SHT31;58740;50.672;18.690;2022-09-14T18:29:16;18.37;78.72
71082;SHT31;58740;50.672;18.690;2022-09-14T18:31:47;18.39;78.69
71082;SHT31;58740;50.672;18.690;2022-09-14T18:34:17;18.38;78.74
71082;SHT31;58740;50.672;18.690;2022-09-14T18:36:49;18.38;78.76
71082;SHT31;58740;50.672;18.690;2022-09-14T18:39:18;18.37;78.72
71082;SHT31;58740;50.672;18.690;2022-09-14T18:41:48;18.35;78.81
71082;SHT31;58740;50.672;18.690;2022-09-14T18:44:18;18.33;78.79
71082;SHT31;58740;50.672;18.690;2022-09-14T18:46:47;18.33;78.78
71082;SHT31;58740;50.672;18.690;2022-09-14T18:49:17;18.33;78.75
71082;SHT31;58740;50.672;18.690;2022-09-14T18:51:45;18.34;78.77